sensor_id;sensor_type;location;lat;lon;timestamp;pressure;altitude;pressure_sealevel;temperature;humidity
60489;BME280;46331;49.252;8.904;2023-05-19T00:00:24;100327.94;;;10.93;58.11
60489;BME280;46331;49.252;8.904;2023-05-19T00:01:05;100327.34;;;10.91;58.34
60489;BME280;46331;49.252;8.904;2023-05-19T00:01:47;100331.84;;;10.90;58.34
60489;BME280;46331;49.252;8.904;2023-05-19T00:02:27;100331.19;;;10.95;58.28
60489;BME280;46331;49.252;8.904;2023-05-19T00:03:12;100325.50;;;10.91;58.17
60489;BME280;46331;49.252;8.904;2023-05-19T00:03:55;100329.78;;;10.93;57.96
60489;BME280;46331;49.252;8.904;2023-05-19T00:04:42;100330.34;;;10.95;58.28
60489;BME280;46331;49.252;8.904;2023-05-19T00:05:22;100327.13;;;10.93;57.93
60489;BME280;46331;49.252;8.904;2023-05-19T00:06:05;100323.91;;;10.90;58.02
60489;BME280;46331;49.252;8.904;2023-05-19T00:06:49;100325.50;;;10.91;58.28
60489;BME280;46331;49.252;8.904;2023-05-19T00:07:30;100339.00;;;10.90;58.03
60489;BME280;46331;49.252;8.904;2023-05-19T00:08:12;100328.97;;;10.92;58.27
60489;BME280;46331;49.252;8.904;2023-05-19T00:09:37;100327.03;;;10.99;58.28
60489;BME280;46331;49.252;8.904;2023-05-19T00:10:17;100332.34;;;10.99;57.97
60489;BME280;46331;49.252;8.904;2023-05-19T00:10:58;100330.75;;;10.98;58.27
60489;BME280;46331;49.252;8.904;2023-05-19T00:11:39;100333.69;;;10.90;57.87
60489;BME280;46331;49.252;8.904;2023-05-19T00:12:20;100331.19;;;10.95;58.37
60489;BME280;46331;49.252;8.904;2023-05-19T00:13:01;100323.69;;;10.92;58.07
60489;BME280;46331;49.252;8.904;2023-05-19T00:13:41;100324.25;;;10.94;58.47
60489;BME280;46331;49.252;8.904;2023-05-19T00:14:22;100327.94;;;10.93;58.16
60489;BME280;46331;49.252;8.904;2023-05-19T00:15:03;100321.47;;;10.89;58.41
60489;BME280;46331;49.252;8.904;2023-05-19T00:15:45;100328.03;;;10.86;58.30
60489;BME280;46331;49.252;8.904;2023-05-19T00:16:27;100328.47;;;10.83;57.94
60489;BME280;46331;49.252;8.904;2023-05-19T00:17:08;100325.38;;;10.86;58.73
60489;BME280;46331;49.252;8.904;2023-05-19T00:17:48;100317.97;;;10.88;58.33
60489;BME280;46331;49.252;8.904;2023-05-19T00:18:29;100319.25;;;10.86;58.43
60489;BME280;46331;49.252;8.904;2023-05-19T00:19:09;100326.03;;;10.82;58.23
60489;BME280;46331;49.252;8.904;2023-05-19T00:19:50;100314.47;;;10.76;58.33
60489;BME280;46331;49.252;8.904;2023-05-19T00:20:34;100320.16;;;10.80;59.06
60489;BME280;46331;49.252;8.904;2023-05-19T00:21:14;100314.25;;;10.78;58.39
60489;BME280;46331;49.252;8.904;2023-05-19T00:21:55;100310.13;;;10.82;58.29
60489;BME280;46331;49.252;8.904;2023-05-19T00:22:36;100317.84;;;10.83;58.21
60489;BME280;46331;49.252;8.904;2023-05-19T00:23:17;100317.84;;;10.83;58.81
60489;BME280;46331;49.252;8.904;2023-05-19T00:23:57;100320.50;;;10.83;58.88
60489;BME280;46331;49.252;8.904;2023-05-19T00:24:38;100320.72;;;10.82;58.86
60489;BME280;46331;49.252;8.904;2023-05-19T00:25:18;100318.75;;;10.77;59.01
60489;BME280;46331;49.252;8.904;2023-05-19T00:25:59;100320.81;;;10.75;58.48
60489;BME280;46331;49.252;8.904;2023-05-19T00:26:39;100314.69;;;10.74;59.18
60489;BME280;46331;49.252;8.904;2023-05-19T00:27:20;100311.59;;;10.78;58.77
60489;BME280;46331;49.252;8.904;2023-05-19T00:28:01;100310.34;;;10.80;58.92
60489;BME280;46331;49.252;8.904;2023-05-19T00:28:42;100315.66;;;10.80;58.31
60489;BME280;46331;49.252;8.904;2023-05-19T00:29:23;100313.56;;;10.82;58.73
60489;BME280;46331;49.252;8.904;2023-05-19T00:30:03;100311.75;;;10.83;58.07
60489;BME280;46331;49.252;8.904;2023-05-19T00:30:44;100316.44;;;10.81;58.52
60489;BME280;46331;49.252;8.904;2023-05-19T00:31:25;100313.34;;;10.84;58.48
60489;BME280;46331;49.252;8.904;2023-05-19T00:32:05;100318.09;;;10.82;58.21
60489;BME280;46331;49.252;8.904;2023-05-19T00:32:46;100312.56;;;10.83;58.68
60489;BME280;46331;49.252;8.904;2023-05-19T00:33:26;100311.31;;;10.86;58.30
60489;BME280;46331;49.252;8.904;2023-05-19T00:34:07;100313.22;;;10.79;58.90
60489;BME280;46331;49.252;8.904;2023-05-19T00:34:47;100313.34;;;10.84;58.67
60489;BME280;46331;49.252;8.904;2023-05-19T00:35:28;100309.69;;;10.85;58.62
60489;BME280;46331;49.252;8.904;2023-05-19T00:36:09;100309.91;;;10.83;58.58
60489;BME280;46331;49.252;8.904;2023-05-19T00:36:49;100315.06;;;10.78;58.16
60489;BME280;46331;49.252;8.904;2023-05-19T00:37:31;100313.66;;;10.76;58.81
60489;BME280;46331;49.252;8.904;2023-05-19T00:38:11;100315.28;;;10.77;58.66
60489;BME280;46331;49.252;8.904;2023-05-19T00:38:52;100313.53;;;10.70;58.71
60489;BME280;46331;49.252;8.904;2023-05-19T00:39:32;100313.09;;;10.73;58.73
60489;BME280;46331;49.252;8.904;2023-05-19T00:40:13;100309.59;;;10.73;58.56
60489;BME280;46331;49.252;8.904;2023-05-19T00:40:54;100314.13;;;10.72;58.89
60489;BME280;46331;49.252;8.904;2023-05-19T00:41:34;100315.13;;;10.71;58.75
60489;BME280;46331;49.252;8.904;2023-05-19T00:42:15;100308.59;;;10.74;59.06
60489;BME280;46331;49.252;8.904;2023-05-19T00:42:56;100313.66;;;10.76;58.99
60489;BME280;46331;49.252;8.904;2023-05-19T00:43:36;100310.66;;;10.72;58.53
60489;BME280;46331;49.252;8.904;2023-05-19T00:44:17;100308.22;;;10.70;58.72
60489;BME280;46331;49.252;8.904;2023-05-19T00:44:57;100307.19;;;10.71;58.94
60489;BME280;46331;49.252;8.904;2023-05-19T00:45:41;100308.69;;;10.67;58.80
60489;BME280;46331;49.252;8.904;2023-05-19T00:46:22;100311.09;;;10.69;59.01
60489;BME280;46331;49.252;8.904;2023-05-19T00:47:03;100311.47;;;10.72;58.66
60489;BME280;46331;49.252;8.904;2023-05-19T00:47:43;100309.69;;;10.66;58.86
60489;BME280;46331;49.252;8.904;2023-05-19T00:48:25;100310.94;;;10.64;59.00
60489;BME280;46331;49.252;8.904;2023-05-19T00:49:05;100316.63;;;10.67;59.44
60489;BME280;46331;49.252;8.904;2023-05-19T00:49:46;100307.06;;;10.66;59.32
60489;BME280;46331;49.252;8.904;2023-05-19T00:50:26;100316.03;;;10.65;59.29
60489;BME280;46331;49.252;8.904;2023-05-19T00:51:07;100315.22;;;10.65;59.13
60489;BME280;46331;49.252;8.904;2023-05-19T00:51:48;100319.72;;;10.64;59.18
60489;BME280;46331;49.252;8.904;2023-05-19T00:52:29;100307.50;;;10.63;59.06
60489;BME280;46331;49.252;8.904;2023-05-19T00:53:11;100307.50;;;10.63;58.71
60489;BME280;46331;49.252;8.904;2023-05-19T00:53:52;100309.78;;;10.60;59.25
60489;BME280;46331;49.252;8.904;2023-05-19T00:54:34;100310.47;;;10.55;58.99
60489;BME280;46331;49.252;8.904;2023-05-19T00:55:16;100307.38;;;10.58;59.56
60489;BME280;46331;49.252;8.904;2023-05-19T00:55:57;100313.81;;;10.62;59.41
60489;BME280;46331;49.252;8.904;2023-05-19T00:56:38;100315.44;;;10.63;58.96
60489;BME280;46331;49.252;8.904;2023-05-19T00:57:20;100311.78;;;10.64;58.99
60489;BME280;46331;49.252;8.904;2023-05-19T00:58:02;100319.72;;;10.64;58.91
60489;BME280;46331;49.252;8.904;2023-05-19T00:58:44;100313.59;;;10.64;59.29
60489;BME280;46331;49.252;8.904;2023-05-19T00:59:25;100317.75;;;10.60;59.04
60489;BME280;46331;49.252;8.904;2023-05-19T01:00:06;100310.00;;;10.58;58.96
60489;BME280;46331;49.252;8.904;2023-05-19T01:00:46;100318.09;;;10.63;59.31
60489;BME280;46331;49.252;8.904;2023-05-19T01:02:19;100315.22;;;10.65;59.34
60489;BME280;46331;49.252;8.904;2023-05-19T01:03:00;100306.91;;;10.61;58.99
60489;BME280;46331;49.252;8.904;2023-05-19T01:03:42;100311.47;;;10.54;59.04
60489;BME280;46331;49.252;8.904;2023-05-19T01:04:23;100309.56;;;10.61;59.57
60489;BME280;46331;49.252;8.904;2023-05-19T01:05:05;100313.16;;;10.67;59.32
60489;BME280;46331;49.252;8.904;2023-05-19T01:05:46;100310.72;;;10.65;59.16
60489;BME280;46331;49.252;8.904;2023-05-19T01:06:33;100308.69;;;10.67;58.80
60489;BME280;46331;49.252;8.904;2023-05-19T01:07:13;100310.50;;;10.67;59.03
60489;BME280;46331;49.252;8.904;2023-05-19T01:07:54;100311.47;;;10.72;59.31
60489;BME280;46331;49.252;8.904;2023-05-19T01:08:36;100308.00;;;10.72;59.11
60489;BME280;46331;49.252;8.904;2023-05-19T01:09:17;100306.16;;;10.72;58.88
60489;BME280;46331;49.252;8.904;2023-05-19T01:09:58;100305.81;;;10.69;58.83
60489;BME280;46331;49.252;8.904;2023-05-19T01:10:38;100314.78;;;10.68;58.69
60489;BME280;46331;49.252;8.904;2023-05-19T01:11:19;100312.94;;;10.68;58.91
60489;BME280;46331;49.252;8.904;2023-05-19T01:12:00;100300.50;;;10.69;58.71
60489;BME280;46331;49.252;8.904;2023-05-19T01:12:41;100309.69;;;10.66;58.60
60489;BME280;46331;49.252;8.904;2023-05-19T01:13:22;100305.41;;;10.65;59.22
60489;BME280;46331;49.252;8.904;2023-05-19T01:14:02;100311.16;;;10.62;58.67
60489;BME280;46331;49.252;8.904;2023-05-19T01:14:43;100305.66;;;10.64;58.93
60489;BME280;46331;49.252;8.904;2023-05-19T01:15:25;100305.72;;;10.57;59.47
60489;BME280;46331;49.252;8.904;2023-05-19T01:16:21;100305.16;;;10.55;59.66
60489;BME280;46331;49.252;8.904;2023-05-19T01:17:14;100305.56;;;10.52;59.79
60489;BME280;46331;49.252;8.904;2023-05-19T01:18:00;100310.00;;;10.58;59.67
60489;BME280;46331;49.252;8.904;2023-05-19T01:19:49;100293.72;;;10.54;59.29
60489;BME280;46331;49.252;8.904;2023-05-19T01:20:50;100307.41;;;10.70;58.85
60489;BME280;46331;49.252;8.904;2023-05-19T01:23:58;100300.84;;;10.72;59.12
60489;BME280;46331;49.252;8.904;2023-05-19T01:24:56;100302.31;;;10.68;58.94
60489;BME280;46331;49.252;8.904;2023-05-19T01:27:50;100285.81;;;10.66;59.29
60489;BME280;46331;49.252;8.904;2023-05-19T01:29:14;100298.22;;;10.54;59.52
60489;BME280;46331;49.252;8.904;2023-05-19T01:31:05;100293.28;;;10.58;59.29
60489;BME280;46331;49.252;8.904;2023-05-19T01:31:48;100299.41;;;10.58;59.38
60489;BME280;46331;49.252;8.904;2023-05-19T01:32:30;100295.78;;;10.52;59.46
60489;BME280;46331;49.252;8.904;2023-05-19T01:33:13;100301.16;;;10.46;59.74
60489;BME280;46331;49.252;8.904;2023-05-19T01:33:55;100292.19;;;10.47;59.36
60489;BME280;46331;49.252;8.904;2023-05-19T01:34:39;100294.81;;;10.47;59.36
60489;BME280;46331;49.252;8.904;2023-05-19T01:35:23;100300.25;;;10.52;59.56
60489;BME280;46331;49.252;8.904;2023-05-19T01:36:06;100292.31;;;10.52;59.26
60489;BME280;46331;49.252;8.904;2023-05-19T01:36:47;100293.94;;;10.53;59.52
60489;BME280;46331;49.252;8.904;2023-05-19T01:37:29;100290.94;;;10.49;59.59
60489;BME280;46331;49.252;8.904;2023-05-19T01:38:11;100295.41;;;10.49;60.10
60489;BME280;46331;49.252;8.904;2023-05-19T01:38:58;100286.81;;;10.53;59.24
60489;BME280;46331;49.252;8.904;2023-05-19T01:39:41;100295.19;;;10.50;58.93
60489;BME280;46331;49.252;8.904;2023-05-19T01:40:23;100293.94;;;10.53;59.39
60489;BME280;46331;49.252;8.904;2023-05-19T01:41:05;100293.13;;;10.52;59.63
60489;BME280;46331;49.252;8.904;2023-05-19T01:41:49;100292.53;;;10.50;59.41
60489;BME280;46331;49.252;8.904;2023-05-19T01:42:31;100291.97;;;10.48;59.72
60489;BME280;46331;49.252;8.904;2023-05-19T01:43:20;100296.91;;;10.45;59.65
60489;BME280;46331;49.252;8.904;2023-05-19T01:44:01;100294.69;;;10.42;59.87
60489;BME280;46331;49.252;8.904;2023-05-19T01:44:42;100297.25;;;10.48;59.13
60489;BME280;46331;49.252;8.904;2023-05-19T01:45:24;100292.19;;;10.47;59.46
60489;BME280;46331;49.252;8.904;2023-05-19T01:46:05;100292.53;;;10.50;59.31
60489;BME280;46331;49.252;8.904;2023-05-19T01:46:46;100292.69;;;10.55;59.83
60489;BME280;46331;49.252;8.904;2023-05-19T01:47:27;100294.16;;;10.51;59.33
60489;BME280;46331;49.252;8.904;2023-05-19T01:48:08;100292.91;;;10.54;59.34
60489;BME280;46331;49.252;8.904;2023-05-19T01:48:48;100289.88;;;10.50;58.98
60489;BME280;46331;49.252;8.904;2023-05-19T01:49:29;100296.47;;;10.48;59.98
60489;BME280;46331;49.252;8.904;2023-05-19T01:50:10;100292.19;;;10.47;59.49
60489;BME280;46331;49.252;8.904;2023-05-19T01:50:51;100301.16;;;10.46;59.80
60489;BME280;46331;49.252;8.904;2023-05-19T01:51:31;100295.06;;;10.45;60.15
60489;BME280;46331;49.252;8.904;2023-05-19T01:52:12;100296.91;;;10.45;59.85
60489;BME280;46331;49.252;8.904;2023-05-19T01:52:53;100290.78;;;10.44;59.49
60489;BME280;46331;49.252;8.904;2023-05-19T01:53:34;100291.59;;;10.45;59.77
60489;BME280;46331;49.252;8.904;2023-05-19T01:54:15;100292.41;;;10.45;60.00
60489;BME280;46331;49.252;8.904;2023-05-19T01:54:56;100295.28;;;10.44;59.97
60489;BME280;46331;49.252;8.904;2023-05-19T01:55:49;100292.03;;;10.42;59.79
60489;BME280;46331;49.252;8.904;2023-05-19T01:58:45;100292.19;;;10.47;59.51
60489;BME280;46331;49.252;8.904;2023-05-19T01:59:36;100290.53;;;10.46;59.87
60489;BME280;46331;49.252;8.904;2023-05-19T02:01:36;100297.47;;;10.47;59.82
60489;BME280;46331;49.252;8.904;2023-05-19T02:04:59;100296.75;;;10.40;59.88
60489;BME280;46331;49.252;8.904;2023-05-19T02:05:52;100305.13;;;10.36;59.50
60489;BME280;46331;49.252;8.904;2023-05-19T02:07:40;100301.59;;;10.43;59.53
60489;BME280;46331;49.252;8.904;2023-05-19T02:08:29;100304.84;;;10.45;59.27
60489;BME280;46331;49.252;8.904;2023-05-19T02:09:29;100302.78;;;10.47;59.26
60489;BME280;46331;49.252;8.904;2023-05-19T02:10:18;100303.00;;;10.45;59.48
60489;BME280;46331;49.252;8.904;2023-05-19T02:11:22;100306.69;;;10.44;59.88
60489;BME280;46331;49.252;8.904;2023-05-19T02:12:13;100304.09;;;10.37;59.50
60489;BME280;46331;49.252;8.904;2023-05-19T02:13:00;100303.09;;;10.38;59.74
60489;BME280;46331;49.252;8.904;2023-05-19T02:13:42;100307.94;;;10.42;59.26
60489;BME280;46331;49.252;8.904;2023-05-19T02:14:32;100312.19;;;10.43;59.15
60489;BME280;46331;49.252;8.904;2023-05-19T02:15:16;100309.78;;;10.41;59.49
60489;BME280;46331;49.252;8.904;2023-05-19T02:16:04;100315.47;;;10.45;59.54
60489;BME280;46331;49.252;8.904;2023-05-19T02:16:47;100312.66;;;10.40;59.47
60489;BME280;46331;49.252;8.904;2023-05-19T02:17:29;100311.63;;;10.41;59.66
60489;BME280;46331;49.252;8.904;2023-05-19T02:18:15;100313.09;;;10.36;59.39
60489;BME280;46331;49.252;8.904;2023-05-19T02:18:58;100311.03;;;10.38;59.57
60489;BME280;46331;49.252;8.904;2023-05-19T02:19:38;100319.56;;;10.41;59.47
60489;BME280;46331;49.252;8.904;2023-05-19T02:20:19;100315.91;;;10.42;59.54
60489;BME280;46331;49.252;8.904;2023-05-19T02:21:04;100317.94;;;10.40;59.40
60489;BME280;46331;49.252;8.904;2023-05-19T02:21:45;100313.47;;;10.40;59.90
60489;BME280;46331;49.252;8.904;2023-05-19T02:22:25;100318.56;;;10.42;59.38
60489;BME280;46331;49.252;8.904;2023-05-19T02:23:06;100316.47;;;10.44;59.11
60489;BME280;46331;49.252;8.904;2023-05-19T02:23:47;100316.47;;;10.44;59.69
60489;BME280;46331;49.252;8.904;2023-05-19T02:24:28;100314.28;;;10.41;59.63
60489;BME280;46331;49.252;8.904;2023-05-19T02:25:09;100318.78;;;10.40;59.32
60489;BME280;46331;49.252;8.904;2023-05-19T02:25:50;100313.84;;;10.44;59.37
60489;BME280;46331;49.252;8.904;2023-05-19T02:26:31;100312.19;;;10.43;59.45
60489;BME280;46331;49.252;8.904;2023-05-19T02:27:11;100320.16;;;10.43;59.21
60489;BME280;46331;49.252;8.904;2023-05-19T02:27:53;100317.50;;;10.43;59.48
60489;BME280;46331;49.252;8.904;2023-05-19T02:28:34;100311.84;;;10.39;59.72
60489;BME280;46331;49.252;8.904;2023-05-19T02:29:16;100316.78;;;10.35;59.36
60489;BME280;46331;49.252;8.904;2023-05-19T02:29:57;100322.09;;;10.35;59.70
60489;BME280;46331;49.252;8.904;2023-05-19T02:30:37;100317.03;;;10.27;59.88
60489;BME280;46331;49.252;8.904;2023-05-19T02:31:18;100314.38;;;10.27;60.02
60489;BME280;46331;49.252;8.904;2023-05-19T02:31:59;100317.47;;;10.24;59.88
60489;BME280;46331;49.252;8.904;2023-05-19T02:32:41;100311.00;;;10.20;60.31
60489;BME280;46331;49.252;8.904;2023-05-19T02:33:21;100316.53;;;10.18;60.25
60489;BME280;46331;49.252;8.904;2023-05-19T02:34:05;100315.91;;;10.16;60.65
60489;BME280;46331;49.252;8.904;2023-05-19T02:34:45;100316.75;;;10.17;60.67
60489;BME280;46331;49.252;8.904;2023-05-19T02:35:26;100309.59;;;10.17;60.45
60489;BME280;46331;49.252;8.904;2023-05-19T02:36:07;100308.78;;;10.17;60.44
60489;BME280;46331;49.252;8.904;2023-05-19T02:36:51;100307.75;;;10.18;60.55
60489;BME280;46331;49.252;8.904;2023-05-19T02:37:32;100310.63;;;10.16;60.20
60489;BME280;46331;49.252;8.904;2023-05-19T02:38:13;100310.41;;;10.18;60.45
60489;BME280;46331;49.252;8.904;2023-05-19T02:38:53;100312.25;;;10.17;60.41
60489;BME280;46331;49.252;8.904;2023-05-19T02:39:34;100310.84;;;10.15;60.42
60489;BME280;46331;49.252;8.904;2023-05-19T02:40:16;100314.53;;;10.14;60.30
60489;BME280;46331;49.252;8.904;2023-05-19T02:40:57;100307.59;;;10.13;60.42
60489;BME280;46331;49.252;8.904;2023-05-19T02:41:38;100309.47;;;10.12;60.80
60489;BME280;46331;49.252;8.904;2023-05-19T02:42:19;100312.69;;;10.14;60.60
60489;BME280;46331;49.252;8.904;2023-05-19T02:42:59;100305.72;;;10.20;60.40
60489;BME280;46331;49.252;8.904;2023-05-19T02:43:41;100308.94;;;10.22;60.38
60489;BME280;46331;49.252;8.904;2023-05-19T02:44:22;100307.91;;;10.23;60.75
60489;BME280;46331;49.252;8.904;2023-05-19T02:45:03;100300.19;;;10.22;60.71
60489;BME280;46331;49.252;8.904;2023-05-19T02:45:44;100294.06;;;10.21;60.48
60489;BME280;46331;49.252;8.904;2023-05-19T02:46:24;100301.44;;;10.19;60.47
60489;BME280;46331;49.252;8.904;2023-05-19T02:47:05;100301.44;;;10.19;60.71
60489;BME280;46331;49.252;8.904;2023-05-19T02:47:46;100303.06;;;10.20;60.74
60489;BME280;46331;49.252;8.904;2023-05-19T02:48:26;100307.53;;;10.19;60.72
60489;BME280;46331;49.252;8.904;2023-05-19T02:49:07;100298.78;;;10.19;61.12
60489;BME280;46331;49.252;8.904;2023-05-19T02:49:47;100304.06;;;10.19;61.01
60489;BME280;46331;49.252;8.904;2023-05-19T02:50:29;100301.44;;;10.19;60.82
60489;BME280;46331;49.252;8.904;2023-05-19T02:51:09;100301.78;;;10.23;60.78
60489;BME280;46331;49.252;8.904;2023-05-19T02:51:50;100295.69;;;10.22;60.23
60489;BME280;46331;49.252;8.904;2023-05-19T02:52:30;100302.97;;;10.27;60.67
60489;BME280;46331;49.252;8.904;2023-05-19T02:53:11;100303.34;;;10.30;60.46
60489;BME280;46331;49.252;8.904;2023-05-19T02:53:51;100299.66;;;10.31;60.14
60489;BME280;46331;49.252;8.904;2023-05-19T02:54:33;100299.88;;;10.30;60.05
60489;BME280;46331;49.252;8.904;2023-05-19T02:55:14;100302.13;;;10.33;60.52
60489;BME280;46331;49.252;8.904;2023-05-19T02:55:56;100303.94;;;10.32;60.11
60489;BME280;46331;49.252;8.904;2023-05-19T02:56:37;100300.28;;;10.33;60.30
60489;BME280;46331;49.252;8.904;2023-05-19T02:57:17;100304.91;;;10.38;60.28
60489;BME280;46331;49.252;8.904;2023-05-19T02:57:58;100305.75;;;10.38;60.09
60489;BME280;46331;49.252;8.904;2023-05-19T02:58:38;100304.84;;;10.45;59.75
60489;BME280;46331;49.252;8.904;2023-05-19T02:59:19;100303.59;;;10.47;59.58
60489;BME280;46331;49.252;8.904;2023-05-19T02:59:59;100301.16;;;10.46;59.44
60489;BME280;46331;49.252;8.904;2023-05-19T03:00:40;100301.16;;;10.46;59.38
60489;BME280;46331;49.252;8.904;2023-05-19T03:01:20;100303.81;;;10.46;59.81
60489;BME280;46331;49.252;8.904;2023-05-19T03:02:02;100299.34;;;10.46;59.68
60489;BME280;46331;49.252;8.904;2023-05-19T03:02:43;100299.34;;;10.46;59.49
60489;BME280;46331;49.252;8.904;2023-05-19T03:03:23;100299.91;;;10.48;59.56
60489;BME280;46331;49.252;8.904;2023-05-19T03:04:04;100300.72;;;10.49;59.67
60489;BME280;46331;49.252;8.904;2023-05-19T03:04:44;100302.78;;;10.47;59.60
60489;BME280;46331;49.252;8.904;2023-05-19T03:05:25;100301.91;;;10.53;59.50
60489;BME280;46331;49.252;8.904;2023-05-19T03:06:05;100305.56;;;10.52;59.65
60489;BME280;46331;49.252;8.904;2023-05-19T03:06:49;100297.78;;;10.57;59.11
60489;BME280;46331;49.252;8.904;2023-05-19T03:07:30;100304.03;;;10.63;58.81
60489;BME280;46331;49.252;8.904;2023-05-19T03:08:10;100294.09;;;10.58;58.99
60489;BME280;46331;49.252;8.904;2023-05-19T03:08:51;100293.66;;;10.61;58.70
60489;BME280;46331;49.252;8.904;2023-05-19T03:09:32;100297.19;;;10.55;59.41
60489;BME280;46331;49.252;8.904;2023-05-19T03:10:12;100298.78;;;10.56;59.13
60489;BME280;46331;49.252;8.904;2023-05-19T03:10:53;100304.25;;;10.61;58.90
60489;BME280;46331;49.252;8.904;2023-05-19T03:11:33;100296.09;;;10.63;59.17
60489;BME280;46331;49.252;8.904;2023-05-19T03:12:14;100296.53;;;10.60;58.79
60489;BME280;46331;49.252;8.904;2023-05-19T03:12:54;100293.03;;;10.59;59.09
60489;BME280;46331;49.252;8.904;2023-05-19T03:13:35;100288.81;;;10.58;59.42
60489;BME280;46331;49.252;8.904;2023-05-19T03:14:17;100296.31;;;10.61;58.71
60489;BME280;46331;49.252;8.904;2023-05-19T03:15:11;100293.78;;;10.66;59.17
60489;BME280;46331;49.252;8.904;2023-05-19T03:15:55;100289.88;;;10.69;58.77
60489;BME280;46331;49.252;8.904;2023-05-19T03:16:44;100294.97;;;10.70;59.10
60489;BME280;46331;49.252;8.904;2023-05-19T03:17:35;100291.13;;;10.66;58.67
60489;BME280;46331;49.252;8.904;2023-05-19T03:18:19;100289.06;;;10.68;58.76
60489;BME280;46331;49.252;8.904;2023-05-19T03:19:15;100283.63;;;10.63;59.06
60489;BME280;46331;49.252;8.904;2023-05-19T03:19:59;100290.13;;;10.67;58.79
60489;BME280;46331;49.252;8.904;2023-05-19T03:20:45;100288.59;;;10.71;58.30
60489;BME280;46331;49.252;8.904;2023-05-19T03:21:41;100287.00;;;10.70;58.43
60489;BME280;46331;49.252;8.904;2023-05-19T03:22:25;100289.88;;;10.69;59.00
60489;BME280;46331;49.252;8.904;2023-05-19T03:23:12;100293.34;;;10.69;58.69
60489;BME280;46331;49.252;8.904;2023-05-19T03:24:00;100288.25;;;10.68;58.85
60489;BME280;46331;49.252;8.904;2023-05-19T03:24:47;100284.19;;;10.65;58.69
60489;BME280;46331;49.252;8.904;2023-05-19T03:25:37;100286.06;;;10.65;59.01
60489;BME280;46331;49.252;8.904;2023-05-19T03:26:21;100280.41;;;10.61;58.85
60489;BME280;46331;49.252;8.904;2023-05-19T03:27:05;100291.59;;;10.63;58.63
60489;BME280;46331;49.252;8.904;2023-05-19T03:27:50;100290.19;;;10.61;59.79
60489;BME280;46331;49.252;8.904;2023-05-19T03:28:40;100281.06;;;10.57;59.38
60489;BME280;46331;49.252;8.904;2023-05-19T03:29:26;100293.50;;;10.56;59.85
60489;BME280;46331;49.252;8.904;2023-05-19T03:30:21;100286.28;;;10.45;59.09
60489;BME280;46331;49.252;8.904;2023-05-19T03:31:21;100280.91;;;10.51;58.95
60489;BME280;46331;49.252;8.904;2023-05-19T03:32:07;100285.53;;;10.56;59.09
60489;BME280;46331;49.252;8.904;2023-05-19T03:32:50;100287.44;;;10.49;59.39
60489;BME280;46331;49.252;8.904;2023-05-19T03:33:34;100290.31;;;10.47;59.26
60489;BME280;46331;49.252;8.904;2023-05-19T03:34:16;100286.28;;;10.45;59.40
60489;BME280;46331;49.252;8.904;2023-05-19T03:35:00;100283.19;;;10.48;59.28
60489;BME280;46331;49.252;8.904;2023-05-19T03:35:44;100289.09;;;10.50;59.56
60489;BME280;46331;49.252;8.904;2023-05-19T03:36:26;100295.41;;;10.49;59.08
60489;BME280;46331;49.252;8.904;2023-05-19T03:37:14;100286.06;;;10.46;59.30
60489;BME280;46331;49.252;8.904;2023-05-19T03:38:06;100282.38;;;10.47;59.57
60489;BME280;46331;49.252;8.904;2023-05-19T03:38:49;100290.94;;;10.49;59.11
60489;BME280;46331;49.252;8.904;2023-05-19T03:39:31;100289.97;;;10.44;58.99
60489;BME280;46331;49.252;8.904;2023-05-19T03:40:15;100296.25;;;10.49;59.24
60489;BME280;46331;49.252;8.904;2023-05-19T03:41:00;100294.59;;;10.48;59.03
60489;BME280;46331;49.252;8.904;2023-05-19T03:42:04;100296.06;;;10.44;59.52
60489;BME280;46331;49.252;8.904;2023-05-19T03:43:09;100294.59;;;10.48;58.78
60489;BME280;46331;49.252;8.904;2023-05-19T03:44:16;100297.03;;;10.50;58.94
60489;BME280;46331;49.252;8.904;2023-05-19T03:44:58;100293.94;;;10.53;58.70
60489;BME280;46331;49.252;8.904;2023-05-19T03:45:39;100287.44;;;10.49;58.67
60489;BME280;46331;49.252;8.904;2023-05-19T03:46:45;100296.91;;;10.45;58.91
60489;BME280;46331;49.252;8.904;2023-05-19T03:47:54;100297.03;;;10.50;59.07
60489;BME280;46331;49.252;8.904;2023-05-19T03:49:05;100298.66;;;10.51;58.85
60489;BME280;46331;49.252;8.904;2023-05-19T03:50:15;100294.59;;;10.48;59.03
60489;BME280;46331;49.252;8.904;2023-05-19T03:51:07;100299.47;;;10.51;59.00
60489;BME280;46331;49.252;8.904;2023-05-19T03:51:50;100293.38;;;10.51;59.00
60489;BME280;46331;49.252;8.904;2023-05-19T03:52:41;100297.03;;;10.50;59.36
60489;BME280;46331;49.252;8.904;2023-05-19T03:53:45;100291.88;;;10.36;59.36
60489;BME280;46331;49.252;8.904;2023-05-19T03:54:33;100293.41;;;10.44;58.62
60489;BME280;46331;49.252;8.904;2023-05-19T03:55:31;100297.47;;;10.47;58.61
60489;BME280;46331;49.252;8.904;2023-05-19T03:56:17;100294.03;;;10.46;58.75
60489;BME280;46331;49.252;8.904;2023-05-19T03:57:06;100299.13;;;10.48;59.07
60489;BME280;46331;49.252;8.904;2023-05-19T03:57:50;100304.25;;;10.43;59.00
60489;BME280;46331;49.252;8.904;2023-05-19T03:58:37;100296.06;;;10.44;59.03
60489;BME280;46331;49.252;8.904;2023-05-19T03:59:25;100300.34;;;10.45;59.17
60489;BME280;46331;49.252;8.904;2023-05-19T04:00:08;100304.19;;;10.49;59.19
60489;BME280;46331;49.252;8.904;2023-05-19T04:00:53;100307.06;;;10.48;59.12
60489;BME280;46331;49.252;8.904;2023-05-19T04:01:34;100304.84;;;10.45;59.07
60489;BME280;46331;49.252;8.904;2023-05-19T04:02:19;100305.22;;;10.48;59.15
60489;BME280;46331;49.252;8.904;2023-05-19T04:03:03;100305.16;;;10.55;58.63
60489;BME280;46331;49.252;8.904;2023-05-19T04:03:56;100299.47;;;10.51;59.14